Startpagina
METAR-TAF:

METAR-TAF

Vliegvelden :

Fort-de-France, Martinique

breedte: 14-36N, lengte: 061-00W, hoogte: 5 m

Actueel weer

Dit bericht is 25 minuten geleden gemaakt, om 12:30 UTC
Wind 10 kt uit het oostzuidoosten
Temperatuur 29°C
Vochtigheid 62%
Druk 1017 hPa
Zicht 10 km of meer
Verspreide wolken op 3300 ft
Gebroken wolken op 5600 ft

METAR: TFFF 261230Z AUTO 12010KT 9999 SCT033 BKN056 29/21 Q1017 NOSIG

Tijdstip: 08:55 (12:55 UTC)

Verwachting

Dit bericht is 1 uur en het 55 minuten geleden gemaakt, om 11:00 UTC
Verwachting geldig van 26 om 12 UTC tot 27 om 12 UTC
Wind 10 kt uit het oosten
Zicht 10 km of meer
Weinig wolken op 2800 ft

TAF: TFFF 261100Z 2612/2712 08010KT 9999 FEW028

Waarnemingen en weersverwachtingen van meer dan 4000 vliegvelden (METAR en TAF).

De beschikbare stations zijn de gele en rode punten op de kaart.

Ga met uw muis naar het station om de naam te zien.

Klik dan om waarnemingen en weersverwachtingen te zien.

kaart wijzigen: klik op de groene knoppen met een zwart kruis om in te zoomen, op de groene knop met een streepje om uit te zoomen of op de groene pijlen voor aangrenzende kaarten.


METAR-TAF: